createdAt,value
2019-02-09T00:02:28.291Z,52.00
2019-02-09T00:04:59.505Z,51.90
2019-02-09T00:07:30.870Z,51.83
2019-02-09T00:10:01.847Z,51.67
2019-02-09T00:12:32.823Z,51.99
2019-02-09T00:15:04.284Z,52.26
2019-02-09T00:17:35.670Z,52.21
2019-02-09T00:20:07.569Z,52.21
2019-02-09T00:22:39.735Z,52.34
2019-02-09T00:25:11.355Z,52.28
2019-02-09T00:27:42.468Z,52.43
2019-02-09T00:30:13.766Z,52.39
2019-02-09T00:32:45.079Z,52.52
2019-02-09T00:35:16.423Z,52.57
2019-02-09T00:37:47.455Z,52.90
2019-02-09T00:40:18.908Z,52.92
2019-02-09T00:42:50.017Z,52.79
2019-02-09T00:45:21.525Z,52.47
2019-02-09T00:47:52.876Z,52.79
2019-02-09T00:50:24.458Z,52.85
2019-02-09T00:52:55.587Z,52.82
2019-02-09T00:55:27.282Z,53.44
2019-02-09T00:57:59.074Z,53.67
2019-02-09T01:00:31.671Z,53.24
2019-02-09T01:03:03.158Z,53.25
2019-02-09T01:05:38.100Z,53.15
2019-02-09T01:08:10.101Z,53.14
2019-02-09T01:10:41.416Z,53.84
2019-02-09T01:13:13.095Z,53.92
2019-02-09T01:15:44.445Z,53.43
2019-02-09T01:18:15.628Z,53.58
2019-02-09T01:20:46.669Z,53.36
2019-02-09T01:23:18.002Z,53.17
2019-02-09T01:25:49.304Z,53.32
2019-02-09T01:28:20.508Z,53.36
2019-02-09T01:30:51.635Z,52.84
2019-02-09T01:33:22.603Z,52.54
2019-02-09T01:35:53.926Z,52.43
2019-02-09T01:38:25.596Z,52.13
2019-02-09T01:40:56.723Z,52.18
2019-02-09T01:43:27.688Z,52.22
2019-02-09T01:45:59.017Z,52.28
2019-02-09T01:48:30.960Z,52.19
2019-02-09T01:51:02.047Z,51.90
2019-02-09T01:53:33.006Z,52.06
2019-02-09T01:56:04.310Z,51.95
2019-02-09T01:58:35.368Z,51.79
2019-02-09T02:01:07.085Z,51.50
2019-02-09T02:03:38.134Z,51.67
2019-02-09T02:06:10.211Z,51.37
2019-02-09T02:08:41.274Z,51.47
2019-02-09T02:11:12.349Z,51.02
2019-02-09T02:13:43.306Z,51.15
2019-02-09T02:16:14.309Z,51.01
2019-02-09T02:18:45.410Z,50.81
2019-02-09T02:21:16.780Z,50.34
2019-02-09T02:23:48.359Z,50.95
2019-02-09T02:26:19.358Z,50.66
2019-02-09T02:28:50.331Z,50.47
2019-02-09T02:31:21.391Z,50.30
2019-02-09T02:33:52.429Z,50.70
2019-02-09T02:36:23.563Z,50.76
2019-02-09T02:38:54.533Z,50.96
2019-02-09T02:41:25.621Z,51.07
2019-02-09T02:43:56.779Z,50.68
2019-02-09T02:46:27.779Z,50.14
2019-02-09T02:48:59.095Z,50.46
2019-02-09T02:51:30.129Z,49.78
2019-02-09T02:54:01.265Z,49.23
2019-02-09T02:56:32.287Z,49.00
2019-02-09T02:59:03.342Z,49.03
2019-02-09T03:01:34.321Z,48.97
2019-02-09T03:04:05.430Z,48.71
2019-02-09T03:06:36.562Z,48.61
2019-02-09T03:09:09.900Z,48.53
2019-02-09T03:11:40.895Z,48.29
2019-02-09T03:14:12.438Z,48.17
2019-02-09T03:16:43.426Z,48.16
2019-02-09T03:19:14.398Z,48.27
2019-02-09T03:21:45.389Z,48.63
2019-02-09T03:24:16.660Z,48.72
2019-02-09T03:26:48.073Z,49.06
2019-02-09T03:29:19.041Z,49.28
2019-02-09T03:31:50.128Z,50.60
2019-02-09T03:34:21.175Z,52.19
2019-02-09T03:36:52.355Z,53.43
2019-02-09T03:39:23.579Z,53.53
2019-02-09T03:41:54.911Z,53.95
2019-02-09T03:44:26.234Z,53.99
2019-02-09T03:46:57.286Z,54.75
2019-02-09T03:49:28.344Z,55.96
2019-02-09T03:51:59.813Z,55.91
2019-02-09T03:54:30.800Z,57.13
2019-02-09T03:57:02.762Z,59.12
2019-02-09T03:59:33.717Z,60.77
2019-02-09T04:02:05.146Z,61.12
2019-02-09T04:04:36.133Z,61.82
2019-02-09T04:07:07.238Z,61.90
2019-02-09T04:09:38.201Z,62.89
2019-02-09T04:12:10.400Z,63.33
2019-02-09T04:14:41.705Z,64.84
2019-02-09T04:17:13.006Z,64.52
2019-02-09T04:19:44.128Z,64.28
2019-02-09T04:22:15.103Z,63.76
2019-02-09T04:24:46.387Z,64.27
2019-02-09T04:27:17.648Z,64.40
2019-02-09T04:29:48.912Z,64.70
2019-02-09T04:32:19.893Z,65.36
2019-02-09T04:34:51.258Z,65.76
2019-02-09T04:37:22.361Z,65.94
2019-02-09T04:39:53.327Z,65.41
2019-02-09T04:42:24.792Z,64.64
2019-02-09T04:44:55.766Z,64.77
2019-02-09T04:47:27.107Z,65.78
2019-02-09T04:49:59.064Z,64.98
2019-02-09T04:52:30.137Z,65.13
2019-02-09T04:55:02.470Z,65.25
2019-02-09T04:57:33.524Z,65.15
2019-02-09T05:00:05.326Z,64.77
2019-02-09T05:02:36.390Z,65.05
2019-02-09T05:05:08.063Z,64.96
2019-02-09T05:07:39.194Z,65.12
2019-02-09T05:10:12.460Z,65.01
2019-02-09T05:12:43.613Z,65.17
2019-02-09T05:15:15.444Z,65.11
2019-02-09T05:17:46.819Z,65.05
2019-02-09T05:20:20.073Z,65.03
2019-02-09T05:22:51.349Z,64.77
2019-02-09T05:25:23.248Z,64.72
2019-02-09T05:27:54.350Z,64.20
2019-02-09T05:30:28.002Z,65.07
2019-02-09T05:33:00.605Z,64.37
2019-02-09T05:35:32.883Z,64.22
2019-02-09T05:38:04.405Z,64.67
2019-02-09T05:40:35.571Z,64.74
2019-02-09T05:43:06.995Z,64.92
2019-02-09T05:45:38.271Z,64.44
2019-02-09T05:48:10.943Z,64.38
2019-02-09T05:50:42.047Z,64.50
2019-02-09T05:53:13.145Z,64.63
2019-02-09T05:55:45.396Z,64.69
2019-02-09T05:58:17.348Z,64.33
2019-02-09T06:00:48.417Z,64.28
2019-02-09T06:03:19.410Z,64.22
2019-02-09T06:05:50.731Z,64.60
2019-02-09T06:08:22.330Z,63.83
2019-02-09T06:10:53.377Z,63.83
2019-02-09T06:13:24.394Z,63.79
2019-02-09T06:15:56.234Z,64.02
2019-02-09T06:18:27.262Z,63.92
2019-02-09T06:20:58.506Z,63.60
2019-02-09T06:23:29.818Z,63.59
2019-02-09T06:26:03.748Z,63.57
2019-02-09T06:28:34.942Z,63.39
2019-02-09T06:31:06.451Z,63.45
2019-02-09T06:33:37.448Z,63.39
2019-02-09T06:36:08.615Z,63.68
2019-02-09T06:38:40.736Z,63.41
2019-02-09T06:41:12.833Z,63.65
2019-02-09T06:43:43.926Z,63.73
2019-02-09T06:46:14.952Z,63.74
2019-02-09T06:48:46.008Z,63.41
2019-02-09T06:51:17.124Z,62.44
2019-02-09T06:53:48.122Z,62.52
2019-02-09T06:56:19.208Z,62.25
2019-02-09T06:58:50.478Z,61.92
2019-02-09T07:01:21.586Z,61.80
2019-02-09T07:03:52.644Z,61.40
2019-02-09T07:06:23.978Z,61.62
2019-02-09T07:08:55.508Z,61.41
2019-02-09T07:11:27.246Z,61.55
2019-02-09T07:13:58.458Z,61.30
2019-02-09T07:16:29.433Z,60.95
2019-02-09T07:19:00.523Z,60.93
2019-02-09T07:21:34.607Z,60.64
2019-02-09T07:24:06.353Z,60.08
2019-02-09T07:26:38.023Z,59.83
2019-02-09T07:29:09.176Z,59.75
2019-02-09T07:31:41.230Z,59.48
2019-02-09T07:34:12.512Z,59.32
2019-02-09T07:36:43.827Z,58.66
2019-02-09T07:39:16.002Z,58.19
2019-02-09T07:41:48.655Z,57.94
2019-02-09T07:44:19.962Z,57.87
2019-02-09T07:46:51.194Z,57.21
2019-02-09T07:49:22.888Z,57.32
2019-02-09T07:51:54.275Z,57.66
2019-02-09T07:54:26.043Z,57.54
2019-02-09T07:56:57.134Z,57.58
2019-02-09T07:59:28.663Z,57.46
2019-02-09T08:02:04.638Z,57.11
2019-02-09T08:04:39.228Z,57.04
2019-02-09T08:07:11.212Z,56.98
2019-02-09T08:09:42.680Z,56.88
2019-02-09T08:12:14.274Z,56.59
2019-02-09T08:14:45.422Z,56.74
2019-02-09T08:17:16.415Z,56.78
2019-02-09T08:19:47.564Z,56.51
2019-02-09T08:22:18.641Z,56.35
2019-02-09T08:24:49.652Z,55.65
2019-02-09T08:27:23.633Z,55.98
2019-02-09T08:29:54.069Z,56.60
2019-02-09T08:32:25.387Z,56.30
2019-02-09T08:34:56.855Z,55.94
2019-02-09T08:37:27.949Z,56.18
2019-02-09T08:39:59.474Z,56.45
2019-02-09T08:42:31.065Z,55.91
2019-02-09T08:45:03.129Z,56.61
2019-02-09T08:47:34.805Z,55.64
2019-02-09T08:50:07.072Z,56.06
2019-02-09T08:52:38.136Z,56.43
2019-02-09T08:55:09.602Z,56.37
2019-02-09T08:57:41.553Z,55.20
2019-02-09T09:00:15.784Z,55.33
2019-02-09T09:02:47.100Z,54.97
2019-02-09T09:05:18.840Z,55.02
2019-02-09T09:07:50.302Z,54.61
2019-02-09T09:12:43.196Z,54.21
2019-02-09T09:15:25.161Z,54.03
2019-02-09T09:17:56.230Z,54.69
2019-02-09T09:20:33.705Z,54.77
2019-02-09T09:23:05.183Z,54.62
2019-02-09T09:25:36.433Z,54.32
2019-02-09T09:28:07.693Z,54.28
2019-02-09T09:30:38.863Z,54.01
2019-02-09T09:33:11.466Z,53.63
2019-02-09T09:35:42.913Z,52.20
2019-02-09T09:38:14.042Z,52.45
2019-02-09T09:40:45.244Z,52.87
2019-02-09T09:43:16.472Z,53.58
2019-02-09T09:45:47.824Z,54.02
2019-02-09T09:48:19.810Z,53.27
2019-02-09T09:50:50.933Z,54.39
2019-02-09T09:53:22.349Z,54.42
2019-02-09T09:55:53.443Z,55.41
2019-02-09T09:58:24.857Z,55.65
2019-02-09T10:00:56.556Z,55.54
2019-02-09T10:03:28.129Z,55.99
2019-02-09T10:05:59.890Z,55.62
2019-02-09T10:08:31.669Z,56.17
2019-02-09T10:11:02.795Z,56.02
2019-02-09T10:13:33.803Z,56.11
2019-02-09T10:16:05.060Z,56.52
2019-02-09T10:18:36.158Z,56.02
2019-02-09T10:21:07.240Z,55.73
2019-02-09T10:23:38.287Z,56.26
2019-02-09T10:26:09.307Z,55.71
2019-02-09T10:28:41.532Z,55.71
2019-02-09T10:31:12.641Z,53.70
2019-02-09T10:33:43.638Z,53.81
2019-02-09T10:36:14.718Z,54.56
2019-02-09T10:38:45.712Z,54.56
2019-02-09T10:41:16.798Z,52.72
2019-02-09T10:43:47.872Z,52.93
2019-02-09T10:46:19.347Z,50.53
2019-02-09T10:48:50.725Z,51.23
2019-02-09T10:51:22.341Z,52.24
2019-02-09T10:53:53.648Z,51.75
2019-02-09T10:56:24.825Z,51.73
2019-02-09T10:58:56.587Z,51.56
2019-02-09T11:01:28.000Z,50.90
2019-02-09T11:03:58.996Z,51.05
2019-02-09T11:06:30.183Z,50.84
2019-02-09T11:09:01.357Z,51.23
2019-02-09T11:11:33.658Z,51.42
2019-02-09T11:14:05.077Z,50.70
2019-02-09T11:16:36.175Z,50.63
2019-02-09T11:19:07.261Z,51.06
2019-02-09T11:21:38.360Z,51.15
2019-02-09T11:24:09.755Z,51.42
2019-02-09T11:26:41.650Z,50.59
2019-02-09T11:29:13.286Z,50.80
2019-02-09T11:31:44.663Z,51.14
2019-02-09T11:34:15.896Z,51.21
2019-02-09T11:36:47.430Z,51.54
2019-02-09T11:39:18.989Z,51.24
2019-02-09T11:41:50.284Z,51.80
2019-02-09T11:44:21.311Z,51.30
2019-02-09T11:46:52.620Z,51.26
2019-02-09T11:49:23.628Z,50.92
2019-02-09T11:51:54.793Z,51.51
2019-02-09T11:54:26.164Z,51.91
2019-02-09T11:56:57.183Z,51.88
2019-02-09T11:59:28.256Z,52.29
2019-02-09T12:01:59.287Z,52.39
2019-02-09T12:04:30.346Z,52.58
2019-02-09T12:07:01.732Z,52.37
2019-02-09T12:09:32.729Z,52.02
2019-02-09T12:12:05.001Z,52.25
2019-02-09T12:14:36.068Z,52.29
2019-02-09T12:17:07.204Z,51.28
2019-02-09T12:19:38.196Z,50.52
2019-02-09T12:22:09.323Z,50.95
2019-02-09T12:24:41.616Z,49.96
2019-02-09T12:27:12.707Z,49.86
2019-02-09T12:29:44.766Z,50.84
2019-02-09T12:32:16.055Z,50.02
2019-02-09T12:34:47.118Z,50.71
2019-02-09T12:37:18.200Z,50.55
2019-02-09T12:39:49.195Z,50.86
2019-02-09T12:42:20.291Z,49.85
2019-02-09T12:44:51.689Z,49.44
2019-02-09T12:47:30.152Z,50.31
2019-02-09T12:50:09.027Z,50.07
2019-02-09T12:52:41.927Z,49.64
2019-02-09T12:55:13.498Z,49.91
2019-02-09T12:57:44.893Z,49.60
2019-02-09T13:00:28.214Z,49.86
2019-02-09T13:03:03.448Z,50.34
2019-02-09T13:05:34.720Z,51.06
2019-02-09T13:08:06.274Z,51.42
2019-02-09T13:10:37.424Z,51.45
2019-02-09T13:13:09.098Z,51.19
2019-02-09T13:15:40.080Z,51.36
2019-02-09T13:18:11.950Z,51.64
2019-02-09T13:20:43.248Z,51.64
2019-02-09T13:23:14.703Z,50.86
2019-02-09T13:25:46.327Z,50.97
2019-02-09T13:28:17.360Z,51.41
2019-02-09T13:30:49.196Z,51.66
2019-02-09T13:33:20.390Z,51.27
2019-02-09T13:35:51.724Z,51.08
2019-02-09T13:38:22.750Z,50.59
2019-02-09T13:40:53.948Z,51.27
2019-02-09T13:43:25.030Z,51.74
2019-02-09T13:45:56.299Z,51.90
2019-02-09T13:48:27.976Z,51.26
2019-02-09T13:50:59.623Z,51.37
2019-02-09T13:53:31.689Z,51.45
2019-02-09T13:59:20.622Z,51.93
2019-02-09T14:01:53.136Z,51.23
2019-02-09T14:04:24.148Z,51.22
2019-02-09T14:09:48.011Z,50.63
2019-02-09T14:12:19.509Z,50.42
2019-02-09T14:14:50.728Z,50.89
2019-02-09T14:17:21.649Z,51.13
2019-02-09T14:19:52.679Z,50.73
2019-02-09T14:22:23.909Z,50.86
2019-02-09T14:24:55.037Z,50.48
2019-02-09T14:27:27.179Z,51.14
2019-02-09T14:29:58.573Z,51.48
2019-02-09T14:32:29.627Z,51.89
2019-02-09T14:35:00.979Z,51.96
2019-02-09T14:37:32.008Z,51.82
2019-02-09T14:40:04.437Z,51.78
2019-02-09T14:42:35.860Z,51.92
2019-02-09T14:45:10.929Z,51.47
2019-02-09T14:47:41.988Z,50.89
2019-02-09T14:50:13.897Z,51.07
2019-02-09T14:52:45.059Z,51.42
2019-02-09T14:55:21.243Z,51.87
2019-02-09T14:57:52.298Z,51.70
2019-02-09T15:00:27.102Z,51.17
2019-02-09T15:02:58.210Z,51.55
2019-02-09T15:05:29.661Z,51.48
2019-02-09T15:08:01.039Z,51.92
2019-02-09T15:10:32.512Z,51.67
2019-02-09T15:13:03.569Z,51.28
2019-02-09T15:15:39.008Z,51.04
2019-02-09T15:18:10.940Z,51.31
2019-02-09T15:20:47.223Z,51.28
2019-02-09T15:23:19.992Z,50.95
2019-02-09T15:25:51.753Z,50.93
2019-02-09T15:28:23.303Z,50.44
2019-02-09T15:30:54.738Z,50.52
2019-02-09T15:33:25.806Z,50.41
2019-02-09T15:35:58.705Z,50.58
2019-02-09T15:38:30.237Z,50.46
2019-02-09T15:41:01.857Z,50.37
2019-02-09T15:43:33.122Z,50.68
2019-02-09T15:46:04.793Z,50.82
2019-02-09T15:48:35.953Z,50.72
2019-02-09T15:51:07.150Z,50.24
2019-02-09T15:53:38.226Z,50.36
2019-02-09T15:56:09.311Z,50.15
2019-02-09T15:58:40.929Z,50.19
2019-02-09T16:01:12.374Z,50.26
2019-02-09T16:03:43.750Z,50.07
2019-02-09T16:06:15.203Z,50.07
2019-02-09T16:08:46.749Z,50.23
2019-02-09T16:11:18.398Z,50.28
2019-02-09T16:13:50.041Z,50.42
2019-02-09T16:16:21.440Z,50.26
2019-02-09T16:18:52.839Z,50.22
2019-02-09T16:24:06.241Z,50.30
2019-02-09T16:26:37.334Z,50.38
2019-02-09T16:29:08.591Z,50.61
2019-02-09T16:31:39.935Z,50.80
2019-02-09T16:34:11.281Z,50.97
2019-02-09T16:36:42.309Z,51.02
2019-02-09T16:39:13.354Z,51.13
2019-02-09T16:41:44.955Z,51.58
2019-02-09T16:44:15.925Z,51.49
2019-02-09T16:46:47.310Z,51.66
2019-02-09T16:49:18.361Z,52.15
2019-02-09T16:51:50.668Z,52.35
2019-02-09T16:54:21.858Z,52.37
2019-02-09T16:56:52.960Z,52.41
2019-02-09T16:59:24.369Z,52.28
2019-02-09T17:01:55.517Z,51.79
2019-02-09T17:04:33.133Z,51.69
2019-02-09T17:07:00.736Z,51.73
2019-02-09T17:09:32.956Z,51.88
2019-02-09T17:12:04.233Z,51.93
2019-02-09T17:14:35.492Z,52.62
2019-02-09T17:17:06.662Z,52.55
2019-02-09T17:19:37.642Z,52.94
2019-02-09T17:22:08.955Z,52.86
2019-02-09T17:24:41.190Z,53.05
2019-02-09T17:27:12.477Z,52.65
2019-02-09T17:29:44.260Z,52.88
2019-02-09T17:32:15.703Z,52.77
2019-02-09T17:34:46.834Z,52.68
2019-02-09T17:37:18.293Z,52.37
2019-02-09T17:39:50.839Z,52.17
2019-02-09T17:42:22.775Z,51.95
2019-02-09T17:44:54.459Z,51.41
2019-02-09T17:47:25.627Z,51.22
2019-02-09T17:49:58.450Z,51.25
2019-02-09T17:52:29.554Z,50.99
2019-02-09T17:55:00.697Z,51.01
2019-02-09T17:57:31.739Z,50.74
2019-02-09T18:00:03.225Z,50.50
2019-02-09T18:02:34.306Z,50.08
2019-02-09T18:05:06.608Z,49.92
2019-02-09T18:07:37.848Z,49.71
2019-02-09T18:10:12.552Z,49.57
2019-02-09T18:12:43.836Z,49.45
2019-02-09T18:15:16.724Z,49.37
2019-02-09T18:17:48.508Z,49.31
2019-02-09T18:20:21.323Z,49.38
2019-02-09T18:22:52.749Z,49.78
2019-02-09T18:25:24.212Z,49.39
2019-02-09T18:27:55.439Z,49.23
2019-02-09T18:30:26.854Z,49.01
2019-02-09T18:32:58.179Z,48.99
2019-02-09T18:35:29.856Z,49.30
2019-02-09T18:38:01.416Z,49.08
2019-02-09T18:40:32.537Z,48.90
2019-02-09T18:43:03.900Z,49.17
2019-02-09T18:45:35.247Z,49.20
2019-02-09T18:48:07.342Z,49.25
2019-02-09T18:50:38.953Z,49.68
2019-02-09T18:53:10.496Z,49.14
2019-02-09T18:55:42.390Z,48.77
2019-02-09T18:58:14.161Z,48.74
2019-02-09T19:00:45.331Z,49.07
2019-02-09T19:03:16.763Z,48.89
2019-02-09T19:05:47.845Z,49.19
2019-02-09T19:08:18.912Z,49.13
2019-02-09T19:10:51.786Z,48.85
2019-02-09T19:13:23.116Z,49.15
2019-02-09T19:15:54.690Z,49.22
2019-02-09T19:18:26.369Z,49.17
2019-02-09T19:21:00.224Z,49.50
2019-02-09T19:23:31.719Z,49.47
2019-02-09T19:26:03.288Z,49.45
2019-02-09T19:28:44.708Z,49.58
2019-02-09T19:31:16.496Z,49.68
2019-02-09T19:33:48.272Z,49.55
2019-02-09T19:36:19.236Z,49.30
2019-02-09T19:38:50.652Z,49.36
2019-02-09T19:41:21.961Z,49.49
2019-02-09T19:43:53.794Z,49.01
2019-02-09T19:46:25.672Z,49.51
2019-02-09T19:48:56.732Z,49.34
2019-02-09T19:51:27.938Z,49.11
2019-02-09T19:53:58.963Z,49.37
2019-02-09T19:56:30.002Z,49.26
2019-02-09T19:59:01.019Z,49.50
2019-02-09T20:01:32.980Z,49.82
2019-02-09T20:04:04.170Z,49.36
2019-02-09T20:06:35.444Z,49.41
2019-02-09T20:09:08.982Z,49.29
2019-02-09T20:11:40.042Z,49.62
2019-02-09T20:14:11.190Z,49.62
2019-02-09T20:16:42.344Z,50.02
2019-02-09T20:19:13.411Z,49.67
2019-02-09T20:21:44.389Z,49.95
2019-02-09T20:24:15.507Z,50.15
2019-02-09T20:26:48.167Z,50.11
2019-02-09T20:29:19.334Z,50.60
2019-02-09T20:31:50.612Z,50.76
2019-02-09T20:34:22.199Z,50.90
2019-02-09T20:36:54.251Z,50.89
2019-02-09T20:39:25.223Z,50.74
2019-02-09T20:41:56.314Z,51.11
2019-02-09T20:44:27.664Z,51.17
2019-02-09T20:46:59.079Z,51.32
2019-02-09T20:49:30.145Z,51.54
2019-02-09T20:52:01.227Z,51.60
2019-02-09T20:54:32.343Z,51.41
2019-02-09T20:57:03.756Z,51.66
2019-02-09T20:59:35.276Z,51.78
2019-02-09T21:02:06.390Z,51.85
2019-02-09T21:04:37.563Z,51.96
2019-02-09T21:07:08.588Z,51.76
2019-02-09T21:09:39.577Z,51.96
2019-02-09T21:12:10.840Z,52.19
2019-02-09T21:14:41.809Z,52.17
2019-02-09T21:17:12.823Z,52.32
2019-02-09T21:19:44.070Z,52.37
2019-02-09T21:22:15.298Z,52.60
2019-02-09T21:24:46.565Z,52.73
2019-02-09T21:27:17.570Z,53.05
2019-02-09T21:29:48.849Z,52.71
2019-02-09T21:32:20.122Z,52.83
2019-02-09T21:34:52.319Z,52.67
2019-02-09T21:37:23.632Z,52.74
2019-02-09T21:39:55.157Z,52.79
2019-02-09T21:42:26.161Z,52.89
2019-02-09T21:44:57.654Z,53.10
2019-02-09T21:47:28.668Z,52.96
2019-02-09T21:49:59.963Z,53.15
2019-02-09T21:52:31.312Z,53.00
2019-02-09T21:55:02.959Z,53.20
2019-02-09T21:57:34.059Z,53.01
2019-02-09T22:00:09.201Z,52.93
2019-02-09T22:02:42.596Z,53.24
2019-02-09T22:05:13.569Z,53.09
2019-02-09T22:07:45.122Z,53.12
2019-02-09T22:10:19.760Z,53.03
2019-02-09T22:12:51.379Z,53.22
2019-02-09T22:15:23.819Z,53.15
2019-02-09T22:17:54.982Z,53.17
2019-02-09T22:20:26.580Z,53.23
2019-02-09T22:22:58.472Z,53.29
2019-02-09T22:25:29.505Z,53.47
2019-02-09T22:28:00.703Z,53.23
2019-02-09T22:30:31.856Z,53.51
2019-02-09T22:33:03.486Z,54.12
2019-02-09T22:35:34.586Z,54.15
2019-02-09T22:38:06.934Z,54.35
2019-02-09T22:40:38.696Z,54.00
2019-02-09T22:43:10.307Z,54.18
2019-02-09T22:45:41.274Z,54.38
2019-02-09T22:48:12.452Z,54.25
2019-02-09T22:50:45.965Z,54.35
2019-02-09T22:53:17.143Z,54.56
2019-02-09T22:55:48.105Z,54.62
2019-02-09T22:58:19.503Z,54.81
2019-02-09T23:01:43.562Z,54.54
2019-02-09T23:04:50.298Z,54.76
2019-02-09T23:07:34.199Z,54.81
2019-02-09T23:10:14.006Z,54.68
2019-02-09T23:12:48.720Z,54.94
2019-02-09T23:15:17.885Z,55.30
2019-02-09T23:17:49.014Z,55.55
2019-02-09T23:20:19.990Z,55.38
2019-02-09T23:22:50.971Z,55.42
2019-02-09T23:25:22.842Z,55.61
2019-02-09T23:27:53.813Z,55.72
2019-02-09T23:30:25.120Z,56.02
2019-02-09T23:32:56.419Z,56.08
2019-02-09T23:35:27.417Z,56.22
2019-02-09T23:37:58.637Z,56.83
2019-02-09T23:40:29.601Z,56.86
2019-02-09T23:43:00.575Z,56.71
2019-02-09T23:45:31.624Z,56.72
2019-02-09T23:48:02.630Z,56.70
2019-02-09T23:50:33.596Z,56.93
2019-02-09T23:53:04.577Z,56.73
2019-02-09T23:55:35.855Z,56.46
2019-02-09T23:58:07.482Z,56.19
